Time;durP1;ratioP1;P1;durP2;ratioP2;P2;SDS_P1;SDS_P2;PMS_P1;PMS_P2;Temp;Humidity;BMP_temperature;BMP_pressure;BME280_temperature;BME280_humidity;BME280_pressure;Samples;Min_cycle;Max_cycle;Signal;HPM_P1;HPM_P2
2022/08/16 00:02:05;;;;;;;;;;;;;;;17.87;100.00;100509.22;6542009;22;20345;-83
2022/08/16 00:04:36;;;;;;;;;;;;;;;17.86;100.00;100505.66;6514776;22;19921;-84
2022/08/16 00:07:07;;;;;;;;;;;;;;;17.86;100.00;100505.66;6542017;22;19910;-84
2022/08/16 00:09:39;;;;;;;;;;;;;;;17.87;100.00;100507.34;6541919;22;20017;-84
2022/08/16 00:12:10;;;;;;;;;;;;;;;17.86;100.00;100502.97;6541715;22;19907;-83
2022/08/16 00:14:41;;;;;;;;;;;;;;;17.87;100.00;100506.50;6541420;22;19914;-84
2022/08/16 00:17:12;;;;;;;;;;;;;;;17.89;100.00;100504.44;6514557;22;19914;-83
2022/08/16 00:19:43;;;;;;;;;;;;;;;17.90;100.00;100506.94;6542545;22;19922;-84
2022/08/16 00:22:17;;;;;;;;;;;;;;;17.87;100.00;100512.72;6515075;22;19964;-84
2022/08/16 00:24:48;;;;;;;;;;;;;;;17.84;100.00;100509.56;6541610;22;20298;-84
2022/08/16 00:27:20;;;;;;;;;;;;;;;17.81;100.00;100513.50;6541376;22;19904;-84
2022/08/16 00:29:53;;;;;;;;;;;;;;;17.79;100.00;100517.41;6541197;22;19907;-83
2022/08/16 00:32:24;;;;;;;;;;;;;;;17.79;100.00;100515.53;6540942;22;19907;-83
2022/08/16 00:34:55;;;;;;;;;;;;;;;17.78;100.00;100516.59;6515937;22;19913;-83
2022/08/16 00:37:27;;;;;;;;;;;;;;;17.79;100.00;100522.81;6513570;22;19910;-82
2022/08/16 00:39:58;;;;;;;;;;;;;;;17.81;100.00;100529.69;6541817;22;19915;-85
2022/08/16 00:42:29;;;;;;;;;;;;;;;17.88;100.00;100527.03;6514805;22;19961;-84
2022/08/16 00:45:08;;;;;;;;;;;;;;;17.90;100.00;100523.13;6541889;22;19915;-84
2022/08/16 00:47:43;;;;;;;;;;;;;;;17.87;100.00;100528.09;6513840;22;19946;-84
2022/08/16 00:50:15;;;;;;;;;;;;;;;17.77;100.00;100534.63;6515100;22;19903;-84
2022/08/16 00:52:47;;;;;;;;;;;;;;;17.71;100.00;100535.44;6541839;22;19966;-85
2022/08/16 00:55:23;;;;;;;;;;;;;;;17.69;100.00;100531.25;6542805;22;19926;-84
2022/08/16 00:57:55;;;;;;;;;;;;;;;17.66;100.00;100537.06;6541873;22;20337;-84
2022/08/16 01:00:28;;;;;;;;;;;;;;;17.64;100.00;100536.41;6542251;22;19908;-84
2022/08/16 01:03:01;;;;;;;;;;;;;;;17.63;100.00;100542.81;6542101;22;19907;-84
2022/08/16 01:05:33;;;;;;;;;;;;;;;17.61;100.00;100536.81;6515210;22;19908;-86
2022/08/16 01:08:05;;;;;;;;;;;;;;;17.58;100.00;100535.31;6542063;22;19990;-84
2022/08/16 01:10:38;;;;;;;;;;;;;;;17.56;100.00;100535.50;6515561;22;19938;-84
2022/08/16 01:13:11;;;;;;;;;;;;;;;17.57;100.00;100542.59;6542359;22;19911;-84
2022/08/16 01:15:45;;;;;;;;;;;;;;;17.61;100.00;100536.81;6515384;22;19911;-84
2022/08/16 01:18:18;;;;;;;;;;;;;;;17.62;100.00;100530.34;6515332;22;19907;-84
2022/08/16 01:21:02;;;;;;;;;;;;;;;17.59;100.00;100531.59;6515741;22;19986;-84
2022/08/16 01:23:49;;;;;;;;;;;;;;;17.57;100.00;100522.88;6543533;22;19907;-84
2022/08/16 01:26:24;;;;;;;;;;;;;;;17.56;100.00;100534.69;6514762;22;19970;-86
2022/08/16 01:28:56;;;;;;;;;;;;;;;17.57;100.00;100537.19;6541517;22;19934;-85
2022/08/16 01:31:28;;;;;;;;;;;;;;;17.57;100.00;100539.88;6515180;22;19935;-84
2022/08/16 01:33:59;;;;;;;;;;;;;;;17.57;100.00;100537.19;6541717;22;19907;-85
2022/08/16 01:36:31;;;;;;;;;;;;;;;17.54;100.00;100534.88;6541427;22;19907;-83
2022/08/16 01:39:08;;;;;;;;;;;;;;;17.51;100.00;100534.44;6513193;22;20293;-83
2022/08/16 01:41:39;;;;;;;;;;;;;;;17.49;100.00;100534.63;6540783;22;20046;-83
2022/08/16 01:44:10;;;;;;;;;;;;;;;17.48;100.00;100534.81;6541046;22;19943;-83
2022/08/16 01:46:44;;;;;;;;;;;;;;;17.44;100.00;100537.06;6515085;22;20356;-83
2022/08/16 01:49:18;;;;;;;;;;;;;;;17.44;100.00;100536.25;6540925;22;19915;-83
2022/08/16 01:51:53;;;;;;;;;;;;;;;17.41;100.00;100540.19;6541749;22;19915;-83
2022/08/16 01:54:25;;;;;;;;;;;;;;;17.36;100.00;100534.53;6540884;22;19911;-83
2022/08/16 01:56:56;;;;;;;;;;;;;;;17.31;100.00;100535.09;6541432;22;20245;-83
2022/08/16 01:59:28;;;;;;;;;;;;;;;17.28;100.00;100538.19;6541163;22;20009;-83
2022/08/16 02:01:59;;;;;;;;;;;;;;;17.25;100.00;100549.38;6541166;22;19903;-83
2022/08/16 02:04:32;;;;;;;;;;;;;;;17.25;100.00;100548.53;6513164;22;19908;-83
2022/08/16 02:07:07;;;;;;;;;;;;;;;17.22;100.00;100554.31;6514296;22;19908;-84
2022/08/16 02:09:39;;;;;;;;;;;;;;;17.16;100.00;100545.97;6513175;22;20006;-83
2022/08/16 02:12:11;;;;;;;;;;;;;;;17.12;100.00;100549.25;6513810;22;19907;-83
2022/08/16 02:14:42;;;;;;;;;;;;;;;17.07;100.00;100552.50;6540321;22;19934;-84
2022/08/16 02:17:13;;;;;;;;;;;;;;;17.04;100.00;100550.22;6514283;22;19997;-83
2022/08/16 02:19:47;;;;;;;;;;;;;;;17.02;100.00;100549.53;6513270;22;19916;-83
2022/08/16 02:22:21;;;;;;;;;;;;;;;16.99;100.00;100544.56;6513266;22;19981;-84
2022/08/16 02:24:52;;;;;;;;;;;;;;;16.93;100.00;100551.53;6513238;22;19907;-83
2022/08/16 02:27:23;;;;;;;;;;;;;;;16.88;100.00;100551.25;6513019;22;19998;-84
2022/08/16 02:29:54;;;;;;;;;;;;;;;16.84;100.00;100541.91;6513176;22;19974;-84
2022/08/16 02:32:26;;;;;;;;;;;;;;;16.80;100.00;100544.13;6514026;22;19954;-85
2022/08/16 02:34:58;;;;;;;;;;;;;;;16.77;100.00;100549.88;6541195;22;20062;-85
2022/08/16 02:37:29;;;;;;;;;;;;;;;16.74;100.00;100542.19;6514276;22;19986;-85
2022/08/16 02:40:00;;;;;;;;;;;;;;;16.72;100.00;100538.00;6513190;22;20301;-83
2022/08/16 02:42:32;;;;;;;;;;;;;;;16.73;100.00;100535.13;6514268;22;19915;-83
2022/08/16 02:45:04;;;;;;;;;;;;;;;16.72;100.00;100540.72;6539454;22;19915;-83
2022/08/16 02:47:35;;;;;;;;;;;;;;;16.69;100.00;100546.47;6539727;22;19915;-83
2022/08/16 02:50:07;;;;;;;;;;;;;;;16.67;100.00;100533.19;6539802;22;20241;-83
2022/08/16 02:52:39;;;;;;;;;;;;;;;16.66;100.00;100533.41;6539144;22;19911;-83
2022/08/16 02:55:10;;;;;;;;;;;;;;;16.63;100.00;100538.13;6513321;22;19907;-83
2022/08/16 02:57:42;;;;;;;;;;;;;;;16.60;100.00;100532.28;6539947;22;19908;-82
2022/08/16 03:00:14;;;;;;;;;;;;;;;16.57;100.00;100532.69;6539185;22;19915;-83
2022/08/16 03:02:45;;;;;;;;;;;;;;;16.54;100.00;100533.88;6541215;22;19903;-84
2022/08/16 03:05:17;;;;;;;;;;;;;;;16.52;100.00;100533.22;6514514;22;19934;-84
2022/08/16 03:07:48;;;;;;;;;;;;;;;16.45;100.00;100530.47;6514117;22;19938;-84
2022/08/16 03:10:19;;;;;;;;;;;;;;;16.40;100.00;100532.88;6513813;22;19907;-84
2022/08/16 03:12:51;;;;;;;;;;;;;;;16.41;100.00;100522.97;6541468;22;19983;-83
2022/08/16 03:15:22;;;;;;;;;;;;;;;16.43;100.00;100524.44;6512840;22;19910;-83
2022/08/16 03:17:53;;;;;;;;;;;;;;;16.44;100.00;100527.94;6540680;22;19907;-83
2022/08/16 03:20:27;;;;;;;;;;;;;;;16.43;100.00;100527.13;6524741;22;20296;-83
2022/08/16 03:22:59;;;;;;;;;;;;;;;16.40;100.00;100523.97;6518735;22;19915;-83
2022/08/16 03:25:30;;;;;;;;;;;;;;;16.38;100.00;100531.41;6539845;22;19908;-83
2022/08/16 03:28:02;;;;;;;;;;;;;;;16.33;100.00;100526.59;6512701;22;19904;-83
2022/08/16 03:30:34;;;;;;;;;;;;;;;16.32;100.00;100532.16;6513266;22;20820;-84
2022/08/16 03:33:05;;;;;;;;;;;;;;;16.35;100.00;100529.91;6514476;22;20238;-84
2022/08/16 03:35:37;;;;;;;;;;;;;;;16.34;100.00;100536.34;6514367;22;19914;-83
2022/08/16 03:38:10;;;;;;;;;;;;;;;16.32;100.00;100538.38;6541324;22;19911;-83
2022/08/16 03:40:42;;;;;;;;;;;;;;;16.28;100.00;100539.75;6515460;22;20241;-83
2022/08/16 03:43:13;;;;;;;;;;;;;;;16.26;100.00;100544.50;6540670;22;19908;-83
2022/08/16 03:45:45;;;;;;;;;;;;;;;16.24;100.00;100555.44;6506173;22;20346;-84
2022/08/16 03:48:16;;;;;;;;;;;;;;;16.24;100.00;100543.88;6508909;22;20323;-84
2022/08/16 03:50:47;;;;;;;;;;;;;;;16.21;100.00;100547.75;6510530;22;20262;-84
2022/08/16 03:53:19;;;;;;;;;;;;;;;16.22;100.00;100548.59;6509966;22;19914;-84
2022/08/16 03:55:50;;;;;;;;;;;;;;;16.22;100.00;100554.81;6509927;22;19907;-84
2022/08/16 03:58:21;;;;;;;;;;;;;;;16.21;100.00;100560.38;6510059;22;19931;-84
2022/08/16 04:00:54;;;;;;;;;;;;;;;16.21;100.00;100560.38;6512020;22;19914;-84
2022/08/16 04:03:25;;;;;;;;;;;;;;;16.26;100.00;100561.47;6509918;22;20311;-83
2022/08/16 04:05:56;;;;;;;;;;;;;;;16.29;100.00;100568.34;6510399;22;19910;-83
2022/08/16 04:08:30;;;;;;;;;;;;;;;16.31;100.00;100568.19;6510300;22;19914;-84
2022/08/16 04:11:02;;;;;;;;;;;;;;;16.30;100.00;100570.00;6510179;22;19904;-84
2022/08/16 04:13:34;;;;;;;;;;;;;;;16.28;100.00;100566.69;6511910;22;19951;-84
2022/08/16 04:16:05;;;;;;;;;;;;;;;16.24;100.00;100568.91;6511951;22;20299;-84
2022/08/16 04:18:37;;;;;;;;;;;;;;;16.23;100.00;100574.47;6511040;22;19942;-84
2022/08/16 04:21:08;;;;;;;;;;;;;;;16.23;100.00;100572.63;6511175;22;19911;-84
2022/08/16 04:23:40;;;;;;;;;;;;;;;16.25;100.00;100573.28;6511628;22;19974;-84
2022/08/16 04:26:11;;;;;;;;;;;;;;;16.30;100.00;100578.09;6510821;22;19914;-84
2022/08/16 04:28:42;;;;;;;;;;;;;;;16.32;100.00;100576.06;6509730;22;19907;-83
2022/08/16 04:31:13;;;;;;;;;;;;;;;16.36;100.00;100584.59;6511126;22;19996;-84
2022/08/16 04:33:45;;;;;;;;;;;;;;;16.35;100.00;100577.53;6511443;22;20290;-84
2022/08/16 04:36:16;;;;;;;;;;;;;;;16.37;100.00;100573.63;6511220;22;19908;-83
2022/08/16 04:38:47;;;;;;;;;;;;;;;16.38;100.00;100578.00;6509950;22;19992;-83
2022/08/16 04:41:18;;;;;;;;;;;;;;;16.41;100.00;100582.19;6511618;22;20303;-83
2022/08/16 04:43:50;;;;;;;;;;;;;;;16.43;100.00;100577.44;6511352;22;20015;-83
2022/08/16 04:46:21;;;;;;;;;;;;;;;16.43;100.00;100583.66;6529814;22;19946;-84
2022/08/16 04:48:53;;;;;;;;;;;;;;;16.45;100.00;100583.47;6541622;22;19915;-84
2022/08/16 04:51:24;;;;;;;;;;;;;;;16.47;100.00;100581.41;6541980;22;19930;-83
2022/08/16 04:53:55;;;;;;;;;;;;;;;16.51;100.00;100582.72;6541476;22;20329;-84
2022/08/16 04:56:26;;;;;;;;;;;;;;;16.55;100.00;100585.84;6541207;22;19904;-83
2022/08/16 04:58:58;;;;;;;;;;;;;;;16.55;100.00;100583.16;6513897;22;19934;-83
2022/08/16 05:01:29;;;;;;;;;;;;;;;16.58;100.00;100585.50;6541675;22;19911;-84
2022/08/16 05:04:00;;;;;;;;;;;;;;;16.62;100.00;100587.63;6514619;22;19908;-83
2022/08/16 05:06:31;;;;;;;;;;;;;;;16.65;100.00;100586.41;6541277;22;19903;-83
2022/08/16 05:09:02;;;;;;;;;;;;;;;16.68;100.00;100594.09;6541263;22;19975;-83
2022/08/16 05:11:34;;;;;;;;;;;;;;;16.74;100.00;100589.81;6541788;22;19927;-83
2022/08/16 05:14:05;;;;;;;;;;;;;;;16.77;100.00;100597.53;6541389;22;19955;-83
2022/08/16 05:16:36;;;;;;;;;;;;;;;16.81;100.00;100602.34;6541388;22;19943;-83
2022/08/16 05:19:07;;;;;;;;;;;;;;;16.85;100.00;100604.69;6540389;22;19914;-83
2022/08/16 05:21:39;;;;;;;;;;;;;;;16.89;100.00;100596.03;6514553;22;20238;-83
2022/08/16 05:24:10;;;;;;;;;;;;;;;16.96;100.00;100602.34;6540698;22;19910;-84
2022/08/16 05:26:41;;;;;;;;;;;;;;;17.08;100.00;100610.75;6541143;22;20314;-83
2022/08/16 05:29:13;;;;;;;;;;;;;;;17.22;100.00;100610.91;6540796;22;19914;-83
2022/08/16 05:31:44;;;;;;;;;;;;;;;17.34;100.00;100617.47;6514266;22;19904;-84
2022/08/16 05:34:18;;;;;;;;;;;;;;;17.49;100.00;100614.69;6540897;22;19907;-84
2022/08/16 05:36:51;;;;;;;;;;;;;;;17.60;100.00;100616.03;6515295;22;19910;-84
2022/08/16 05:39:23;;;;;;;;;;;;;;;17.75;100.00;100612.22;6514733;22;19935;-83
2022/08/16 05:41:54;;;;;;;;;;;;;;;17.95;100.00;100615.13;6541087;22;19912;-84
2022/08/16 05:44:25;;;;;;;;;;;;;;;18.15;100.00;100617.09;6514059;22;20223;-84
2022/08/16 05:46:57;;;;;;;;;;;;;;;18.32;100.00;100623.88;6496730;22;1071497;-84
2022/08/16 05:49:30;;;;;;;;;;;;;;;18.55;100.00;100633.53;6515602;22;19947;-84
2022/08/16 05:52:01;;;;;;;;;;;;;;;18.70;100.00;100628.00;6515425;22;19907;-84
2022/08/16 05:54:32;;;;;;;;;;;;;;;18.87;100.00;100623.09;6542690;22;19977;-84
2022/08/16 05:57:04;;;;;;;;;;;;;;;19.00;100.00;100628.53;6543193;22;19907;-84
2022/08/16 05:59:35;;;;;;;;;;;;;;;19.19;100.00;100626.94;6541718;22;20265;-83
2022/08/16 06:02:07;;;;;;;;;;;;;;;19.37;100.00;100630.91;6542545;22;20330;-84
2022/08/16 06:04:38;;;;;;;;;;;;;;;19.54;100.00;100636.78;6542517;22;19907;-84
2022/08/16 06:07:10;;;;;;;;;;;;;;;19.76;100.00;100646.41;6542720;22;19907;-84
2022/08/16 06:09:41;;;;;;;;;;;;;;;19.98;100.00;100644.28;6514830;22;20273;-84
2022/08/16 06:12:13;;;;;;;;;;;;;;;20.26;100.00;100628.88;6542125;22;19986;-84
2022/08/16 06:14:44;;;;;;;;;;;;;;;20.46;100.00;100634.22;6542185;22;19989;-84
2022/08/16 06:17:16;;;;;;;;;;;;;;;20.65;100.00;100638.78;6542009;22;19931;-83
2022/08/16 06:19:47;;;;;;;;;;;;;;;20.76;100.00;100627.28;6542269;22;19908;-83
2022/08/16 06:22:18;;;;;;;;;;;;;;;20.93;100.00;100641.19;6515462;22;19994;-84
2022/08/16 06:24:49;;;;;;;;;;;;;;;21.17;100.00;100632.50;6542625;22;19908;-83
2022/08/16 06:27:21;;;;;;;;;;;;;;;21.27;100.00;100630.16;6541886;22;19911;-84
2022/08/16 06:29:52;;;;;;;;;;;;;;;21.53;100.00;100643.56;6542147;22;19953;-84
2022/08/16 06:32:23;;;;;;;;;;;;;;;21.79;100.00;100635.41;6542187;22;19961;-83
2022/08/16 06:34:55;;;;;;;;;;;;;;;21.91;100.00;100641.78;6515049;22;19943;-84
2022/08/16 06:37:26;;;;;;;;;;;;;;;22.19;100.00;100641.31;6514845;22;19911;-83
2022/08/16 06:39:57;;;;;;;;;;;;;;;22.45;100.00;100640.25;6514997;22;19979;-83
2022/08/16 06:42:29;;;;;;;;;;;;;;;22.38;100.00;100633.22;6515459;22;19908;-83
2022/08/16 06:45:00;;;;;;;;;;;;;;;22.24;100.00;100640.66;6541693;22;19911;-83
2022/08/16 06:47:31;;;;;;;;;;;;;;;22.39;100.00;100640.34;6542153;22;20276;-83
2022/08/16 06:50:06;;;;;;;;;;;;;;;22.46;100.00;100641.09;6541719;22;19903;-83
2022/08/16 06:52:38;;;;;;;;;;;;;;;22.65;100.00;100637.31;6515047;22;19903;-82
2022/08/16 06:55:10;;;;;;;;;;;;;;;22.73;100.00;100646.22;6541877;22;19946;-83
2022/08/16 06:57:41;;;;;;;;;;;;;;;22.87;100.00;100644.16;6542519;22;19907;-83
2022/08/16 07:00:13;;;;;;;;;;;;;;;23.18;100.00;100640.44;6541227;22;20249;-83
2022/08/16 07:02:45;;;;;;;;;;;;;;;23.52;100.00;100640.75;6515541;22;20303;-83
2022/08/16 07:05:16;;;;;;;;;;;;;;;23.70;100.00;100642.56;6515086;22;19912;-83
2022/08/16 07:07:50;;;;;;;;;;;;;;;24.13;100.00;100649.63;6541328;22;27842;-83
2022/08/16 07:10:22;;;;;;;;;;;;;;;24.47;100.00;100653.38;6541568;22;20590;-83
2022/08/16 07:12:53;;;;;;;;;;;;;;;24.69;100.00;100645.44;6542016;22;19903;-83
2022/08/16 07:15:24;;;;;;;;;;;;;;;24.95;100.00;100661.47;6515083;22;19904;-83
2022/08/16 07:17:56;;;;;;;;;;;;;;;24.97;100.00;100653.91;6542105;22;19907;-83
2022/08/16 07:20:27;;;;;;;;;;;;;;;25.06;100.00;100661.44;6541751;22;19935;-83
2022/08/16 07:22:58;;;;;;;;;;;;;;;25.06;100.00;100658.72;6515040;22;19978;-83
2022/08/16 07:25:29;;;;;;;;;;;;;;;25.32;100.00;100659.22;6541760;22;19904;-83
2022/08/16 07:28:01;;;;;;;;;;;;;;;25.69;100.00;100661.50;6541761;22;19904;-83
2022/08/16 07:30:33;;;;;;;;;;;;;;;26.20;100.00;100661.50;6541885;22;20322;-83
2022/08/16 07:33:05;;;;;;;;;;;;;;;26.44;100.00;100664.88;6540763;22;19930;-82
2022/08/16 07:35:37;;;;;;;;;;;;;;;26.54;100.00;100670.47;6541511;22;19904;-82
2022/08/16 07:38:08;;;;;;;;;;;;;;;26.71;100.00;100664.16;6541332;22;19907;-82
2022/08/16 07:40:39;;;;;;;;;;;;;;;26.84;100.00;100666.50;6541323;22;19907;-82
2022/08/16 07:43:10;;;;;;;;;;;;;;;27.10;100.00;100662.13;6515055;22;19955;-82
2022/08/16 07:45:41;;;;;;;;;;;;;;;27.45;100.00;100671.81;6514412;22;19915;-83
2022/08/16 07:48:13;;;;;;;;;;;;;;;27.78;100.00;100678.16;6541360;22;19915;-82
2022/08/16 07:50:44;;;;;;;;;;;;;;;27.79;100.00;100684.44;6541328;22;19908;-82
2022/08/16 07:53:16;;;;;;;;;;;;;;;27.85;100.00;100675.19;6514896;22;19907;-82
2022/08/16 07:55:47;;;;;;;;;;;;;;;28.17;100.00;100677.91;6542096;22;19914;-83
2022/08/16 07:58:19;;;;;;;;;;;;;;;28.64;100.00;100681.78;6541095;22;19922;-82
2022/08/16 08:00:51;;;;;;;;;;;;;;;29.10;100.00;100681.94;6542090;22;19958;-82
2022/08/16 08:03:22;;;;;;;;;;;;;;;29.59;100.00;100681.53;6514795;22;20323;-82
2022/08/16 08:05:53;;;;;;;;;;;;;;;29.89;100.00;100684.59;6541793;22;20010;-84
2022/08/16 08:08:25;;;;;;;;;;;;;;;29.90;97.52;100683.50;6541577;22;19903;-83
2022/08/16 08:10:56;;;;;;;;;;;;;;;29.92;96.30;100692.28;6514582;22;19914;-83
2022/08/16 08:13:28;;;;;;;;;;;;;;;29.77;96.02;100693.13;6542202;22;19912;-83
2022/08/16 08:15:59;;;;;;;;;;;;;;;30.20;92.83;100696.38;6541616;22;19918;-83
2022/08/16 08:18:30;;;;;;;;;;;;;;;30.38;91.64;100689.50;6541951;22;19907;-83
2022/08/16 08:21:02;;;;;;;;;;;;;;;30.68;85.87;100696.00;6541891;22;19994;-83
2022/08/16 08:23:35;;;;;;;;;;;;;;;30.91;79.96;100692.63;6543273;22;20249;-83
2022/08/16 08:26:07;;;;;;;;;;;;;;;31.52;76.58;100700.84;6542923;22;20393;-83
2022/08/16 08:28:39;;;;;;;;;;;;;;;31.57;70.55;100693.38;6516201;22;19983;-83
2022/08/16 08:31:10;;;;;;;;;;;;;;;31.64;67.92;100709.59;6516094;22;20333;-83
2022/08/16 08:33:42;;;;;;;;;;;;;;;31.97;69.13;100696.09;6542912;22;20315;-83
2022/08/16 08:36:15;;;;;;;;;;;;;;;32.09;65.52;100699.31;6516091;22;20245;-83
2022/08/16 08:38:47;;;;;;;;;;;;;;;31.93;63.60;100698.59;6542781;22;20798;-83
2022/08/16 08:41:18;;;;;;;;;;;;;;;32.29;66.33;100692.75;6542776;22;19914;-83
2022/08/16 08:43:49;;;;;;;;;;;;;;;32.67;63.74;100698.44;6542961;22;19903;-83
2022/08/16 08:46:21;;;;;;;;;;;;;;;32.78;60.61;100701.91;6542457;22;19958;-83
2022/08/16 08:48:53;;;;;;;;;;;;;;;33.30;61.89;100704.81;6542876;22;19986;-82
2022/08/16 08:51:24;;;;;;;;;;;;;;;33.97;57.37;100701.84;6542820;22;19954;-83
2022/08/16 08:53:55;;;;;;;;;;;;;;;33.93;52.18;100702.75;6516341;22;19908;-83
2022/08/16 08:56:31;;;;;;;;;;;;;;;34.38;51.79;100708.59;6542757;22;19957;-83
2022/08/16 08:59:03;;;;;;;;;;;;;;;34.72;48.41;100705.47;6515631;22;19915;-83
2022/08/16 09:01:35;;;;;;;;;;;;;;;34.28;49.41;100712.41;6543064;22;19904;-83
2022/08/16 09:04:07;;;;;;;;;;;;;;;34.62;48.77;100706.44;6542449;22;19907;-83
2022/08/16 09:06:38;;;;;;;;;;;;;;;35.02;47.35;100709.53;6515888;22;19908;-83
2022/08/16 09:09:09;;;;;;;;;;;;;;;35.06;45.65;100708.91;6542539;22;20035;-83
2022/08/16 09:11:43;;;;;;;;;;;;;;;34.80;44.82;100704.75;6542403;22;20628;-83
2022/08/16 09:14:14;;;;;;;;;;;;;;;34.48;45.73;100719.47;6542325;22;19914;-83
2022/08/16 09:16:45;;;;;;;;;;;;;;;34.42;46.33;100715.19;6543426;22;19994;-83
2022/08/16 09:19:16;;;;;;;;;;;;;;;34.36;45.49;100717.19;6542826;22;19912;-83
2022/08/16 09:21:49;;;;;;;;;;;;;;;34.20;46.09;100715.84;6543564;22;20326;-83
2022/08/16 09:24:20;;;;;;;;;;;;;;;34.06;44.26;100732.41;6542871;22;19911;-83
2022/08/16 09:26:51;;;;;;;;;;;;;;;34.22;43.86;100725.50;6543269;22;19904;-83
2022/08/16 09:29:22;;;;;;;;;;;;;;;34.44;42.51;100719.25;6542613;22;20037;-83
2022/08/16 09:31:54;;;;;;;;;;;;;;;35.07;42.49;100708.59;6543512;22;19907;-83
2022/08/16 09:34:25;;;;;;;;;;;;;;;35.94;39.64;100714.91;6542052;22;19951;-83
2022/08/16 09:36:56;;;;;;;;;;;;;;;36.59;40.83;100711.78;6543080;22;19990;-81
2022/08/16 09:39:28;;;;;;;;;;;;;;;37.70;36.60;100724.63;6515590;22;20245;-83
2022/08/16 09:41:59;;;;;;;;;;;;;;;37.98;34.91;100728.63;6542884;22;19931;-83
2022/08/16 09:44:30;;;;;;;;;;;;;;;38.19;34.21;100717.63;6542406;22;20297;-82
2022/08/16 09:47:02;;;;;;;;;;;;;;;38.49;34.25;100719.66;6542592;22;19918;-82
2022/08/16 09:49:33;;;;;;;;;;;;;;;39.51;33.05;100712.97;6543044;22;19907;-82
2022/08/16 09:52:04;;;;;;;;;;;;;;;39.88;30.81;100720.66;6543033;22;20257;-82
2022/08/16 09:54:36;;;;;;;;;;;;;;;39.43;30.74;100721.38;6542278;22;19949;-82
2022/08/16 09:57:07;;;;;;;;;;;;;;;39.47;30.71;100719.56;6543137;22;19903;-82
2022/08/16 09:59:39;;;;;;;;;;;;;;;39.89;29.91;100720.31;6542779;22;20203;-82
2022/08/16 10:02:10;;;;;;;;;;;;;;;39.73;29.60;100713.75;6542624;22;19904;-82
2022/08/16 10:04:41;;;;;;;;;;;;;;;41.11;28.78;100719.94;6542659;22;19903;-82
2022/08/16 10:07:12;;;;;;;;;;;;;;;42.14;27.39;100726.91;6542591;22;20250;-82
2022/08/16 10:09:44;;;;;;;;;;;;;;;41.70;27.65;100726.91;6515535;22;19970;-82
2022/08/16 10:15:07;;;;;;;;;;;;;;;41.01;27.13;100713.69;6542332;22;19903;-82
2022/08/16 10:17:41;;;;;;;;;;;;;;;41.66;27.92;100715.63;6542877;22;19903;-82
2022/08/16 10:20:12;;;;;;;;;;;;;;;42.45;26.00;100723.28;6514920;22;20285;-82
2022/08/16 10:22:43;;;;;;;;;;;;;;;42.88;24.70;100727.13;6515516;22;19914;-82
2022/08/16 10:25:14;;;;;;;;;;;;;;;42.93;25.06;100712.03;6542320;22;19911;-82
2022/08/16 10:27:46;;;;;;;;;;;;;;;42.50;24.52;100714.66;6542528;22;19907;-82
2022/08/16 10:30:18;;;;;;;;;;;;;;;41.33;25.63;100716.66;6541664;22;19903;-81
2022/08/16 10:32:49;;;;;;;;;;;;;;;40.98;26.36;100711.59;6542163;22;19907;-82
2022/08/16 10:35:20;;;;;;;;;;;;;;;39.21;27.87;100715.00;6515551;22;19907;-82
2022/08/16 10:37:51;;;;;;;;;;;;;;;39.55;28.79;100713.09;6542509;22;20280;-82
2022/08/16 10:40:23;;;;;;;;;;;;;;;41.12;26.55;100713.19;6541844;22;19907;-82
2022/08/16 10:42:54;;;;;;;;;;;;;;;42.96;24.91;100718.91;6541919;22;19910;-82
2022/08/16 10:45:26;;;;;;;;;;;;;;;44.14;23.28;100726.94;6541736;22;19911;-82
2022/08/16 10:47:58;;;;;;;;;;;;;;;43.77;23.92;100721.03;6541840;22;19907;-82
2022/08/16 10:50:31;;;;;;;;;;;;;;;43.23;23.43;100719.88;6542395;22;20342;-82
2022/08/16 10:53:05;;;;;;;;;;;;;;;44.07;23.78;100718.34;6541269;22;19911;-82
2022/08/16 10:55:38;;;;;;;;;;;;;;;44.99;22.97;100719.44;6542404;22;19904;-82
2022/08/16 10:58:10;;;;;;;;;;;;;;;45.92;21.84;100719.75;6541773;22;19955;-82
2022/08/16 11:00:42;;;;;;;;;;;;;;;46.50;20.74;100730.41;6541950;22;20318;-83
2022/08/16 11:03:14;;;;;;;;;;;;;;;45.83;21.00;100732.19;6541796;22;19914;-83
2022/08/16 11:05:46;;;;;;;;;;;;;;;45.40;20.80;100734.47;6541470;22;19935;-83
2022/08/16 11:08:17;;;;;;;;;;;;;;;45.56;20.99;100725.00;6541651;22;19911;-82
2022/08/16 11:10:48;;;;;;;;;;;;;;;43.91;21.69;100734.53;6541280;22;19907;-83
2022/08/16 11:13:21;;;;;;;;;;;;;;;44.45;22.00;100738.28;6515152;22;20302;-82
2022/08/16 11:15:56;;;;;;;;;;;;;;;44.40;21.66;100730.19;6541811;22;19996;-83
2022/08/16 11:18:30;;;;;;;;;;;;;;;43.00;22.24;100733.81;6541552;22;19924;-83
2022/08/16 11:21:01;;;;;;;;;;;;;;;40.77;23.92;100725.69;6541373;22;20001;-83
2022/08/16 11:23:32;;;;;;;;;;;;;;;38.96;25.86;100731.53;6542372;22;19911;-82
2022/08/16 11:26:04;;;;;;;;;;;;;;;38.59;26.46;100724.88;6542193;22;19907;-83
2022/08/16 11:28:35;;;;;;;;;;;;;;;37.41;28.02;100723.28;6515323;22;19966;-81
2022/08/16 11:31:07;;;;;;;;;;;;;;;36.99;29.07;100734.81;6541686;22;19903;-82
2022/08/16 11:33:38;;;;;;;;;;;;;;;36.42;29.31;100735.59;6542004;22;20285;-82
2022/08/16 11:36:09;;;;;;;;;;;;;;;36.08;29.14;100738.97;6542145;22;19904;-82
2022/08/16 11:38:41;;;;;;;;;;;;;;;35.85;29.50;100735.38;6541898;22;20242;-83
2022/08/16 11:41:12;;;;;;;;;;;;;;;35.68;29.19;100734.09;6514445;22;19908;-83
2022/08/16 11:43:45;;;;;;;;;;;;;;;34.49;30.35;100740.50;6541597;22;20334;-82
2022/08/16 11:46:19;;;;;;;;;;;;;;;33.09;32.52;100745.72;6541444;22;19919;-82
2022/08/16 11:48:50;;;;;;;;;;;;;;;32.62;33.61;100748.19;6542219;22;19903;-82
2022/08/16 11:51:21;;;;;;;;;;;;;;;31.90;35.01;100745.25;6542508;22;20322;-83
2022/08/16 11:53:53;;;;;;;;;;;;;;;31.73;36.28;100745.63;6541472;22;19926;-83
2022/08/16 11:56:24;;;;;;;;;;;;;;;31.70;36.79;100755.31;6515159;22;19910;-83
2022/08/16 11:58:55;;;;;;;;;;;;;;;31.88;36.96;100748.28;6542777;22;19958;-83
2022/08/16 12:01:26;;;;;;;;;;;;;;;32.55;36.21;100742.97;6543598;22;19954;-83
2022/08/16 12:03:58;;;;;;;;;;;;;;;33.50;35.06;100753.44;6542940;22;20596;-83
2022/08/16 12:06:29;;;;;;;;;;;;;;;34.72;32.96;100747.00;6543148;22;19942;-83
2022/08/16 12:09:00;;;;;;;;;;;;;;;35.39;31.80;100746.41;6517719;22;19973;-83
2022/08/16 12:11:32;;;;;;;;;;;;;;;36.90;29.39;100756.19;6543261;22;19911;-83
2022/08/16 12:14:03;;;;;;;;;;;;;;;37.12;28.75;100746.09;6542802;22;19915;-83
2022/08/16 12:16:35;;;;;;;;;;;;;;;37.06;29.80;100746.28;6543095;22;19930;-83
2022/08/16 12:19:07;;;;;;;;;;;;;;;37.80;29.20;100754.84;6542392;22;19915;-83
2022/08/16 12:21:39;;;;;;;;;;;;;;;38.81;27.43;100754.44;6542864;22;19911;-83
2022/08/16 12:24:10;;;;;;;;;;;;;;;39.88;25.81;100745.78;6542887;22;20387;-82
2022/08/16 12:26:41;;;;;;;;;;;;;;;39.77;25.67;100748.19;6542865;22;19908;-82
2022/08/16 12:29:13;;;;;;;;;;;;;;;40.64;25.29;100758.44;6542328;22;19915;-82
2022/08/16 12:31:44;;;;;;;;;;;;;;;42.55;24.04;100761.19;6516428;22;19907;-82
2022/08/16 12:34:15;;;;;;;;;;;;;;;43.12;22.29;100756.13;6543060;22;20207;-82
2022/08/16 12:36:46;;;;;;;;;;;;;;;43.53;21.56;100764.25;6543105;22;19911;-82
2022/08/16 12:39:19;;;;;;;;;;;;;;;43.73;21.38;100760.28;6542687;22;20642;-82
2022/08/16 12:41:51;;;;;;;;;;;;;;;44.97;20.95;100767.66;6542804;22;19907;-82
2022/08/16 12:44:23;;;;;;;;;;;;;;;45.58;20.41;100760.03;6543186;22;19918;-82
2022/08/16 12:49:45;;;;;;;;;;;;;;;47.48;19.59;100759.97;6543316;22;19908;-82
2022/08/16 12:52:16;;;;;;;;;;;;;;;47.88;18.44;100758.09;6543693;22;20389;-82
2022/08/16 12:54:47;;;;;;;;;;;;;;;48.44;17.57;100753.72;6543667;22;19911;-83
2022/08/16 12:57:18;;;;;;;;;;;;;;;48.06;18.20;100760.97;6544417;22;19990;-82
2022/08/16 12:59:50;;;;;;;;;;;;;;;47.06;17.42;100761.38;6543733;22;20340;-83